Time;durP1;ratioP1;P1;durP2;ratioP2;P2;SDS_P1;SDS_P2;PMS_P1;PMS_P2;Temp;Humidity;BMP_temperature;BMP_pressure;BME280_temperature;BME280_humidity;BME280_pressure;Samples;Min_cycle;Max_cycle;Signal;HPM_P1;HPM_P2
2022/05/20 00:00:43;;;;;;;;;;;;;;;13.75;59.96;100572.66;4348595;33;19971;-85
2022/05/20 00:03:08;;;;;;;;;;;;;;;13.54;59.94;100575.94;4348573;33;20014;-85
2022/05/20 00:05:33;;;;;;;;;;;;;;;13.63;59.95;100573.03;4347803;33;19986;-85
2022/05/20 00:07:59;;;;;;;;;;;;;;;13.62;59.95;100570.47;4348658;33;20042;-85
2022/05/20 00:10:24;;;;;;;;;;;;;;;13.50;59.95;100571.72;4346637;33;20374;-85
2022/05/20 00:12:49;;;;;;;;;;;;;;;13.55;59.95;100568.94;4334803;33;20015;-85
2022/05/20 00:15:16;;;;;;;;;;;;;;;13.42;59.94;100565.84;4334874;33;19976;-85
2022/05/20 00:17:41;;;;;;;;;;;;;;;13.51;59.94;100562.97;4348230;33;19998;-85
2022/05/20 00:20:07;;;;;;;;;;;;;;;13.38;59.94;100553.78;4334786;33;19992;-85
2022/05/20 00:22:32;;;;;;;;;;;;;;;13.46;59.94;100557.00;4334723;33;20339;-85
2022/05/20 00:27:41;;;;;;;;;;;;;;;13.27;59.94;100561.97;4336668;33;19993;-84
2022/05/20 00:30:07;;;;;;;;;;;;;;;13.11;59.93;100560.66;4348313;33;19979;-85
2022/05/20 00:32:32;;;;;;;;;;;;;;;12.90;59.91;100559.50;4348174;33;20046;-85
2022/05/20 00:34:57;;;;;;;;;;;;;;;12.93;59.91;100559.44;4348223;33;19968;-85
2022/05/20 00:37:22;;;;;;;;;;;;;;;12.88;59.91;100556.94;4321978;33;20392;-85
2022/05/20 00:39:48;;;;;;;;;;;;;;;12.60;59.90;100556.88;4334702;33;19995;-85
2022/05/20 00:42:14;;;;;;;;;;;;;;;12.69;59.90;100562.72;4348130;33;20223;-84
2022/05/20 00:44:39;;;;;;;;;;;;;;;12.85;59.90;100559.66;4348186;33;20004;-84
2022/05/20 00:47:04;;;;;;;;;;;;;;;12.71;59.89;100560.94;4348117;33;20039;-85
2022/05/20 00:49:30;;;;;;;;;;;;;;;12.72;59.91;100571.34;4348263;33;20318;-85
2022/05/20 00:51:55;;;;;;;;;;;;;;;12.59;59.89;100581.28;4322559;33;20017;-85
2022/05/20 00:54:24;;;;;;;;;;;;;;;12.39;59.88;100575.72;4335281;33;19975;-85
2022/05/20 00:57:02;;;;;;;;;;;;;;;12.05;59.87;100578.31;4348802;33;20007;-85
2022/05/20 00:59:28;;;;;;;;;;;;;;;12.07;59.86;100576.56;4348865;33;19995;-85
2022/05/20 01:01:54;;;;;;;;;;;;;;;12.12;59.88;100573.81;4335937;33;20025;-84
2022/05/20 01:04:19;;;;;;;;;;;;;;;11.99;59.86;100576.72;4327370;33;20030;-84
2022/05/20 01:06:44;;;;;;;;;;;;;;;12.03;59.86;100568.81;4345914;33;19995;-85
2022/05/20 01:09:09;;;;;;;;;;;;;;;12.01;59.86;100565.38;4322850;33;19991;-85
2022/05/20 01:11:35;;;;;;;;;;;;;;;12.11;59.86;100566.88;4334222;33;20282;-85
2022/05/20 01:14:01;;;;;;;;;;;;;;;12.24;59.87;100573.50;4334292;33;20340;-85
2022/05/20 01:16:26;;;;;;;;;;;;;;;12.22;59.87;100567.47;4334502;33;20031;-85
2022/05/20 01:18:53;;;;;;;;;;;;;;;12.11;59.87;100567.75;4334335;33;19991;-85
2022/05/20 01:21:18;;;;;;;;;;;;;;;12.06;59.87;100568.72;4333457;33;19980;-85
2022/05/20 01:23:44;;;;;;;;;;;;;;;12.09;59.86;100568.69;4347835;33;20019;-86
2022/05/20 01:26:09;;;;;;;;;;;;;;;12.10;59.86;100557.34;4333086;33;20042;-85
2022/05/20 01:28:34;;;;;;;;;;;;;;;11.86;59.85;100564.88;4334485;33;20364;-86
2022/05/20 01:31:07;;;;;;;;;;;;;;;11.98;59.86;100559.34;4334398;33;20091;-85
2022/05/20 01:33:34;;;;;;;;;;;;;;;11.97;59.86;100560.25;4334354;33;20034;-86
2022/05/20 01:36:00;;;;;;;;;;;;;;;11.85;59.85;100567.53;4334253;33;20039;-86
2022/05/20 01:38:25;;;;;;;;;;;;;;;11.96;59.85;100562.91;4334357;33;20293;-86
2022/05/20 01:40:59;;;;;;;;;;;;;;;12.16;59.87;100563.25;4334220;33;20005;-86
2022/05/20 01:43:24;;;;;;;;;;;;;;;11.95;59.85;100564.66;4334237;33;20516;-84
2022/05/20 01:45:59;;;;;;;;;;;;;;;12.10;59.86;100557.34;4347761;33;19995;-84
2022/05/20 01:48:26;;;;;;;;;;;;;;;11.85;59.85;100552.75;4334302;33;20014;-85
2022/05/20 01:50:52;;;;;;;;;;;;;;;11.87;59.85;100550.09;4334112;33;19976;-85
2022/05/20 01:53:20;;;;;;;;;;;;;;;12.07;59.86;100542.63;4334127;33;19980;-85
2022/05/20 01:55:57;;;;;;;;;;;;;;;11.86;59.85;100546.63;4334030;33;20001;-84
2022/05/20 01:58:25;;;;;;;;;;;;;;;11.68;59.84;100542.66;4321909;33;20010;-85
2022/05/20 02:00:51;;;;;;;;;;;;;;;11.91;59.86;100536.06;4347545;33;19984;-83
2022/05/20 02:03:16;;;;;;;;;;;;;;;11.43;59.82;100540.69;4334138;33;19983;-84
2022/05/20 02:05:49;;;;;;;;;;;;;;;11.47;59.83;100543.16;4347418;33;19998;-84
2022/05/20 02:08:17;;;;;;;;;;;;;;;11.62;59.83;100536.75;4321777;33;20007;-83
2022/05/20 02:11:15;;;;;;;;;;;;;;;11.41;59.83;100539.84;4347472;33;19975;-84
2022/05/20 02:13:41;;;;;;;;;;;;;;;11.28;59.82;100545.34;4301623;33;19995;-83
2022/05/20 02:16:08;;;;;;;;;;;;;;;11.17;59.82;100543.88;4334086;33;20014;-84
2022/05/20 02:18:35;;;;;;;;;;;;;;;11.27;59.82;100543.62;4334122;33;20010;-85
2022/05/20 02:21:05;;;;;;;;;;;;;;;11.33;59.82;100537.41;4334092;33;19972;-86
2022/05/20 02:23:33;;;;;;;;;;;;;;;11.21;59.81;100543.75;4334132;33;20046;-86
2022/05/20 02:26:03;;;;;;;;;;;;;;;11.28;59.82;100542.72;4334013;33;20021;-85
2022/05/20 02:28:45;;;;;;;;;;;;;;;11.24;59.81;100546.28;4334161;33;20277;-85
2022/05/20 02:31:11;;;;;;;;;;;;;;;11.24;59.82;100546.28;4333990;33;20062;-86
2022/05/20 02:33:36;;;;;;;;;;;;;;;11.21;59.81;100541.16;4348898;33;20035;-85
2022/05/20 02:36:03;;;;;;;;;;;;;;;11.22;59.82;100545.47;4349613;33;20023;-85
2022/05/20 02:38:28;;;;;;;;;;;;;;;11.41;59.83;100532.91;4336000;33;20051;-85
2022/05/20 02:40:53;;;;;;;;;;;;;;;11.43;59.82;100530.25;4323756;33;20002;-86
2022/05/20 02:43:19;;;;;;;;;;;;;;;11.36;59.81;100533.00;4323908;33;20027;-86
2022/05/20 02:45:44;;;;;;;;;;;;;;;11.47;59.83;100521.47;4336296;33;20028;-87
2022/05/20 02:48:10;;;;;;;;;;;;;;;11.28;59.81;100527.09;4336724;33;20031;-86
2022/05/20 02:50:35;;;;;;;;;;;;;;;11.26;59.81;100523.66;4337487;33;20007;-86
2022/05/20 02:53:00;;;;;;;;;;;;;;;11.32;59.82;100520.91;4338414;33;20027;-86
2022/05/20 02:55:26;;;;;;;;;;;;;;;11.35;59.82;100517.38;4348640;32;20011;-86
2022/05/20 02:57:51;;;;;;;;;;;;;;;11.21;59.81;100520.31;4330277;33;20343;-86
2022/05/20 03:05:45;;;;;;;;;;;;;;;11.07;59.81;100510.19;4337387;33;20035;-85
2022/05/20 03:08:11;;;;;;;;;;;;;;;11.25;59.81;100508.06;4348952;33;20011;-86
2022/05/20 03:10:36;;;;;;;;;;;;;;;11.27;59.81;100508.88;4335470;33;19990;-84
2022/05/20 03:13:02;;;;;;;;;;;;;;;11.29;59.81;100513.16;4348210;33;22625;-84
2022/05/20 03:15:28;;;;;;;;;;;;;;;11.43;59.82;100507.66;4335442;33;19995;-85
2022/05/20 03:17:53;;;;;;;;;;;;;;;11.29;59.81;100512.31;4335461;33;20031;-84
2022/05/20 03:20:18;;;;;;;;;;;;;;;11.57;59.83;100517.72;4322661;33;19999;-84
2022/05/20 03:22:43;;;;;;;;;;;;;;;11.42;59.82;100512.91;4335214;33;19994;-84
2022/05/20 03:25:09;;;;;;;;;;;;;;;11.48;59.83;100510.12;4348777;33;20022;-84
2022/05/20 03:27:34;;;;;;;;;;;;;;;11.41;59.83;100513.78;4348756;33;20318;-84
2022/05/20 03:29:59;;;;;;;;;;;;;;;11.37;59.82;100513.88;4334849;33;21820;-86
2022/05/20 03:32:24;;;;;;;;;;;;;;;11.73;59.84;100521.69;4335346;33;19989;-86
2022/05/20 03:34:50;;;;;;;;;;;;;;;11.71;59.84;100509.59;4335134;33;20015;-86
2022/05/20 03:37:15;;;;;;;;;;;;;;;11.67;59.84;100509.66;4348744;33;20005;-86
2022/05/20 03:39:40;;;;;;;;;;;;;;;11.55;59.83;100511.69;4335354;33;19980;-86
2022/05/20 03:42:05;;;;;;;;;;;;;;;11.63;59.83;100505.44;4334958;33;20308;-86
2022/05/20 03:44:31;;;;;;;;;;;;;;;11.69;59.84;100512.22;4348212;33;19975;-86
2022/05/20 03:46:56;;;;;;;;;;;;;;;11.80;59.84;100515.44;4347366;33;20056;-85
2022/05/20 03:49:23;;;;;;;;;;;;;;;11.84;59.85;100509.28;4335260;33;19972;-84
2022/05/20 03:51:48;;;;;;;;;;;;;;;11.95;59.85;100507.25;4348800;33;20638;-84
2022/05/20 03:54:15;;;;;;;;;;;;;;;11.98;59.86;100515.00;4335027;33;19996;-83
2022/05/20 03:56:40;;;;;;;;;;;;;;;11.92;59.85;100514.31;4322966;33;20444;-85
2022/05/20 03:59:08;;;;;;;;;;;;;;;12.16;59.87;100507.59;4348721;33;19976;-84
2022/05/20 04:04:17;;;;;;;;;;;;;;;12.23;59.87;100501.31;4337051;33;19993;-85
2022/05/20 04:06:43;;;;;;;;;;;;;;;12.35;59.88;100514.03;4348492;33;19987;-85
2022/05/20 04:09:08;;;;;;;;;;;;;;;12.53;59.89;100508.28;4348771;33;19999;-85
2022/05/20 04:11:34;;;;;;;;;;;;;;;12.72;59.89;100502.56;4334616;33;20457;-85
2022/05/20 04:13:59;;;;;;;;;;;;;;;12.78;59.90;100505.88;4335199;33;20007;-85
2022/05/20 04:16:24;;;;;;;;;;;;;;;12.97;59.91;100508.78;4335221;33;19991;-85
2022/05/20 04:18:49;;;;;;;;;;;;;;;13.25;59.92;100497.50;4334913;33;19984;-85
2022/05/20 04:21:15;;;;;;;;;;;;;;;13.58;59.95;100495.59;4334820;33;20000;-84
2022/05/20 04:23:40;;;;;;;;;;;;;;;13.59;59.95;100495.56;4335088;33;20007;-86
2022/05/20 04:26:06;;;;;;;;;;;;;;;13.72;59.96;100498.63;4348449;33;19988;-85
2022/05/20 04:28:31;;;;;;;;;;;;;;;13.89;59.96;100492.81;4348631;33;19971;-85
2022/05/20 04:30:57;;;;;;;;;;;;;;;13.87;59.95;100486.78;4334968;33;19998;-85
2022/05/20 04:33:23;;;;;;;;;;;;;;;14.01;59.96;100484.56;4335032;33;20364;-85
2022/05/20 04:35:48;;;;;;;;;;;;;;;14.30;59.97;100491.41;4348457;33;20010;-85
2022/05/20 04:38:13;;;;;;;;;;;;;;;14.36;59.98;100489.41;4334431;33;19975;-86
2022/05/20 04:40:39;;;;;;;;;;;;;;;14.66;60.00;100497.09;4348431;33;20317;-86
2022/05/20 04:48:32;;;;;;;;;;;;;;;15.03;60.02;100481.69;4338097;33;20043;-86
2022/05/20 04:50:57;;;;;;;;;;;;;;;15.32;60.04;100475.31;4348253;33;20043;-85
2022/05/20 04:56:07;;;;;;;;;;;;;;;15.84;60.06;100472.34;4337367;33;20001;-86
2022/05/20 04:58:32;;;;;;;;;;;;;;;15.86;60.07;100475.78;4348372;33;20024;-85
2022/05/20 05:00:58;;;;;;;;;;;;;;;16.04;60.07;100480.25;4321619;33;27919;-85
2022/05/20 05:03:23;;;;;;;;;;;;;;;16.24;60.09;100476.75;4334685;33;20026;-86
2022/05/20 05:05:48;;;;;;;;;;;;;;;16.38;60.09;100473.53;4334810;33;20003;-85
2022/05/20 05:08:14;;;;;;;;;;;;;;;16.54;60.09;100474.53;4348110;33;20031;-86
2022/05/20 05:10:39;;;;;;;;;;;;;;;16.70;60.12;100486.09;4348158;33;20459;-86
2022/05/20 05:13:05;;;;;;;;;;;;;;;16.82;60.11;100490.81;4348231;33;20310;-85
2022/05/20 05:15:30;;;;;;;;;;;;;;;16.94;60.12;100493.78;4334501;33;19991;-85
2022/05/20 05:18:14;;;;;;;;;;;;;;;17.25;60.14;100498.44;4347838;33;20034;-84
2022/05/20 05:20:47;;;;;;;;;;;;;;;17.07;60.14;100494.94;4348056;33;20055;-86
2022/05/20 05:23:12;;;;;;;;;;;;;;;17.39;60.15;100491.63;4348083;33;20027;-87
2022/05/20 05:25:38;;;;;;;;;;;;;;;17.38;60.15;100476.75;4322326;33;19995;-86
2022/05/20 05:28:03;;;;;;;;;;;;;;;17.54;60.16;100476.03;4334386;33;19989;-87
2022/05/20 05:30:28;;;;;;;;;;;;;;;17.63;60.16;100475.56;4334206;33;20026;-86
2022/05/20 05:32:54;;;;;;;;;;;;;;;17.75;60.16;100472.34;4334249;33;19992;-86
2022/05/20 05:35:20;;;;;;;;;;;;;;;17.93;60.18;100462.66;4334374;33;20034;-86
2022/05/20 05:37:45;;;;;;;;;;;;;;;18.13;60.19;100459.84;4334381;33;20018;-87
2022/05/20 05:40:11;;;;;;;;;;;;;;;18.39;60.21;100469.03;4333537;33;24485;-86
2022/05/20 05:42:37;;;;;;;;;;;;;;;18.55;60.21;100459.38;4334139;33;20018;-87
2022/05/20 05:45:03;;;;;;;;;;;;;;;18.69;60.22;100462.16;4334182;33;19991;-87
2022/05/20 05:47:28;;;;;;;;;;;;;;;18.96;60.23;100465.06;4347689;33;20396;-87
2022/05/20 05:49:54;;;;;;;;;;;;;;;19.17;60.24;100455.13;4347619;33;19972;-86
2022/05/20 05:52:19;;;;;;;;;;;;;;;19.19;60.24;100455.88;4334214;33;20759;-84
2022/05/20 05:54:44;;;;;;;;;;;;;;;19.20;60.24;100452.31;4347228;33;19987;-83
2022/05/20 05:57:09;;;;;;;;;;;;;;;19.21;60.24;100459.28;4347495;33;20055;-86
2022/05/20 05:59:35;;;;;;;;;;;;;;;19.46;60.26;100458.75;4333927;33;20014;-86
2022/05/20 06:02:01;;;;;;;;;;;;;;;19.76;60.28;100448.22;4347247;33;19976;-86
2022/05/20 06:04:26;;;;;;;;;;;;;;;19.93;60.28;100441.94;4333806;33;20002;-87
2022/05/20 06:06:52;;;;;;;;;;;;;;;19.96;60.28;100447.03;4333964;33;19984;-87
2022/05/20 06:09:17;;;;;;;;;;;;;;;20.36;60.31;100448.13;4335925;33;20043;-87
2022/05/20 06:11:43;;;;;;;;;;;;;;;20.51;60.31;100447.19;4349099;33;19991;-86
2022/05/20 06:14:08;;;;;;;;;;;;;;;20.83;60.33;100442.53;4349259;33;20038;-86
2022/05/20 06:16:34;;;;;;;;;;;;;;;21.31;60.35;100436.87;4349053;33;20319;-87
2022/05/20 06:18:59;;;;;;;;;;;;;;;21.58;60.37;100426.22;4349515;33;20331;-87
2022/05/20 06:21:26;;;;;;;;;;;;;;;21.90;60.39;100422.25;4323608;33;20019;-87
2022/05/20 06:23:51;;;;;;;;;;;;;;;22.17;60.39;100427.47;4349558;33;19991;-87
2022/05/20 06:26:16;;;;;;;;;;;;;;;22.48;60.42;100418.25;4348852;33;20006;-87
2022/05/20 06:28:42;;;;;;;;;;;;;;;22.87;60.43;100419.87;4335614;33;19983;-87
2022/05/20 06:31:07;;;;;;;;;;;;;;;23.06;60.45;100423.84;4349339;33;19972;-87
2022/05/20 06:33:32;;;;;;;;;;;;;;;23.38;60.47;100417.00;4356735;33;20720;-88
2022/05/20 06:41:25;;;;;;;;;;;;;;;23.41;60.46;100427.37;4349263;33;20393;-84
2022/05/20 06:43:51;;;;;;;;;;;;;;;23.52;60.47;100423.94;4323276;33;19991;-84
2022/05/20 06:46:16;;;;;;;;;;;;;;;23.47;60.47;100426.94;4348854;33;20226;-84
2022/05/20 06:48:46;;;;;;;;;;;;;;;23.60;60.48;100431.34;4335590;33;19975;-84
2022/05/20 06:51:12;;;;;;;;;;;;;;;23.79;60.48;100424.53;4335666;33;20436;-84
2022/05/20 06:53:37;;;;;;;;;;;;;;;23.96;60.49;100425.06;4335519;33;20010;-84
2022/05/20 06:56:03;;;;;;;;;;;;;;;24.10;60.50;100431.00;4335609;33;19979;-84
2022/05/20 06:58:28;;;;;;;;;;;;;;;24.28;60.52;100428.75;4335561;33;19979;-84
2022/05/20 07:00:53;;;;;;;;;;;;;;;24.24;60.51;100429.94;4349078;33;20010;-84
2022/05/20 07:03:21;;;;;;;;;;;;;;;24.27;60.51;100439.50;4349043;33;20238;-84
2022/05/20 07:05:46;;;;;;;;;;;;;;;24.14;60.51;100444.94;4349042;33;20036;-84
2022/05/20 07:08:12;;;;;;;;;;;;;;;23.93;60.50;100435.94;4348975;33;20305;-84
2022/05/20 07:10:37;;;;;;;;;;;;;;;24.04;60.51;100436.78;4335205;33;19983;-84
2022/05/20 07:13:02;;;;;;;;;;;;;;;24.35;60.51;100437.09;4348567;33;20015;-84
2022/05/20 07:15:27;;;;;;;;;;;;;;;24.37;60.52;100448.47;4348674;33;19988;-83
2022/05/20 07:17:53;;;;;;;;;;;;;;;24.27;60.52;100445.66;4349003;33;20270;-84
2022/05/20 07:20:18;;;;;;;;;;;;;;;24.26;60.51;100437.78;4348096;33;19995;-84
2022/05/20 07:22:43;;;;;;;;;;;;;;;24.28;60.53;100438.53;4349063;33;20275;-84
2022/05/20 07:25:08;;;;;;;;;;;;;;;24.48;60.52;100437.84;4348851;33;20011;-84
2022/05/20 07:27:34;;;;;;;;;;;;;;;24.58;60.54;100443.28;4348878;33;19972;-84
2022/05/20 07:29:59;;;;;;;;;;;;;;;24.78;60.54;100445.19;4348561;33;20262;-84
2022/05/20 07:32:24;;;;;;;;;;;;;;;24.80;60.54;100443.25;4348861;33;20325;-84
2022/05/20 07:34:50;;;;;;;;;;;;;;;24.97;60.55;100444.56;4335356;33;20050;-84
2022/05/20 07:37:15;;;;;;;;;;;;;;;24.99;60.56;100438.16;4348731;33;19991;-84
2022/05/20 07:39:40;;;;;;;;;;;;;;;25.09;60.56;100433.81;4348808;33;19991;-84
2022/05/20 07:42:05;;;;;;;;;;;;;;;25.08;60.56;100439.25;4348233;33;23927;-85
2022/05/20 07:44:31;;;;;;;;;;;;;;;25.12;60.57;100443.38;4348817;33;19991;-84
2022/05/20 07:46:56;;;;;;;;;;;;;;;25.20;60.56;100446.22;4348445;33;19979;-84
2022/05/20 07:49:21;;;;;;;;;;;;;;;25.33;60.57;100440.75;4348718;33;20318;-84
2022/05/20 07:51:47;;;;;;;;;;;;;;;25.40;60.58;100434.78;4348750;33;19975;-84
2022/05/20 07:54:13;;;;;;;;;;;;;;;25.41;60.58;100432.97;4335157;33;20390;-85
2022/05/20 07:56:39;;;;;;;;;;;;;;;25.40;60.58;100432.12;4335045;33;20277;-84
2022/05/20 07:59:09;;;;;;;;;;;;;;;25.32;60.57;100429.25;4348578;33;19999;-84
2022/05/20 08:01:35;;;;;;;;;;;;;;;25.36;60.57;100427.19;4335007;33;20059;-84
2022/05/20 08:06:47;;;;;;;;;;;;;;;25.51;60.57;100425.88;4348596;33;20023;-84
2022/05/20 08:09:12;;;;;;;;;;;;;;;25.55;60.59;100421.13;4348362;33;19999;-84
2022/05/20 08:11:37;;;;;;;;;;;;;;;25.80;60.60;100420.81;4348599;33;20027;-84
2022/05/20 08:14:03;;;;;;;;;;;;;;;26.03;60.61;100413.53;4348408;33;19991;-84
2022/05/20 08:16:28;;;;;;;;;;;;;;;25.97;60.60;100406.87;4334713;33;20273;-84
2022/05/20 08:18:53;;;;;;;;;;;;;;;26.19;60.62;100410.34;4348437;33;20091;-84
2022/05/20 08:21:18;;;;;;;;;;;;;;;26.38;60.62;100409.63;4349336;33;20007;-85
2022/05/20 08:23:47;;;;;;;;;;;;;;;26.62;60.63;100407.47;4352013;33;20296;-84
2022/05/20 08:26:16;;;;;;;;;;;;;;;26.92;60.65;100402.06;4335280;33;20080;-84
2022/05/20 08:28:42;;;;;;;;;;;;;;;27.11;60.67;100401.28;4348462;33;19995;-84
2022/05/20 08:31:08;;;;;;;;;;;;;;;27.41;60.68;100402.97;4348148;33;20266;-84
2022/05/20 08:33:34;;;;;;;;;;;;;;;27.64;60.69;100394.69;4348470;33;20029;-84
2022/05/20 08:35:59;;;;;;;;;;;;;;;27.86;60.70;100390.84;4348432;33;19991;-84
2022/05/20 08:38:25;;;;;;;;;;;;;;;28.08;60.72;100394.00;4347027;33;19983;-84
2022/05/20 08:40:51;;;;;;;;;;;;;;;28.16;60.72;100393.31;4334899;33;20067;-84
2022/05/20 08:43:16;;;;;;;;;;;;;;;28.43;60.74;100382.66;4348379;33;19995;-84
2022/05/20 08:45:41;;;;;;;;;;;;;;;28.53;60.74;100376.37;4334731;33;19984;-84
2022/05/20 08:48:07;;;;;;;;;;;;;;;28.67;60.75;100376.75;4347828;33;19976;-84
2022/05/20 08:50:34;;;;;;;;;;;;;;;28.93;60.76;100368.00;4348143;33;20022;-84
2022/05/20 08:52:59;;;;;;;;;;;;;;;29.15;60.76;100359.50;4334771;33;20385;-85
2022/05/20 08:55:24;;;;;;;;;;;;;;;29.50;60.79;100358.63;4334557;33;19979;-84
2022/05/20 08:57:59;;;;;;;;;;;;;;;29.56;60.79;100349.97;4348260;33;20018;-83
2022/05/20 09:00:24;;;;;;;;;;;;;;;29.64;60.80;100358.09;4348136;33;19998;-83
2022/05/20 09:02:49;;;;;;;;;;;;;;;29.59;60.79;100349.69;4334436;33;20428;-83
2022/05/20 09:05:17;;;;;;;;;;;;;;;29.81;60.80;100344.75;4347625;33;22086;-84
2022/05/20 09:07:53;;;;;;;;;;;;;;;29.97;60.82;100342.19;4348104;33;20396;-84
2022/05/20 09:10:26;;;;;;;;;;;;;;;29.77;60.80;100340.72;4322568;33;19991;-84
2022/05/20 09:12:52;;;;;;;;;;;;;;;29.92;60.80;100331.94;4334750;33;19976;-84
2022/05/20 09:18:03;;;;;;;;;;;;;;;30.13;60.82;100326.19;4336653;33;19991;-84
2022/05/20 09:20:29;;;;;;;;;;;;;;;30.07;60.82;100329.53;4348090;33;20006;-84
2022/05/20 09:23:01;;;;;;;;;;;;;;;30.29;60.83;100327.28;4347989;33;20007;-84
2022/05/20 09:25:28;;;;;;;;;;;;;;;30.34;60.83;100324.94;4334396;33;19988;-83
2022/05/20 09:28:11;;;;;;;;;;;;;;;30.36;60.84;100322.94;4348024;33;20009;-83
2022/05/20 09:30:37;;;;;;;;;;;;;;;30.37;60.83;100317.38;4348341;33;20384;-82
2022/05/20 09:33:09;;;;;;;;;;;;;;;30.35;60.82;100313.19;4334602;33;19975;-82
2022/05/20 09:35:34;;;;;;;;;;;;;;;30.27;60.83;100313.12;4348181;33;19980;-82
2022/05/20 09:38:00;;;;;;;;;;;;;;;30.37;60.83;100314.69;4334392;33;20031;-81
2022/05/20 09:40:31;;;;;;;;;;;;;;;30.52;60.84;100305.03;4334218;33;19975;-82
2022/05/20 09:43:00;;;;;;;;;;;;;;;30.49;60.83;100307.16;4346921;33;20027;-81
2022/05/20 09:45:26;;;;;;;;;;;;;;;30.55;60.84;100301.16;4347665;33;19980;-82
2022/05/20 09:47:55;;;;;;;;;;;;;;;30.70;60.84;100310.28;4347396;33;20257;-82
2022/05/20 09:50:28;;;;;;;;;;;;;;;30.96;60.86;100304.75;4334215;33;19999;-82
2022/05/20 09:52:54;;;;;;;;;;;;;;;31.10;60.87;100306.78;4334199;33;20400;-82
2022/05/20 09:55:24;;;;;;;;;;;;;;;31.13;60.86;100313.69;4334128;33;20047;-82
2022/05/20 09:57:49;;;;;;;;;;;;;;;31.24;60.88;100313.41;4347690;33;19979;-82
2022/05/20 10:00:32;;;;;;;;;;;;;;;31.42;60.88;100314.03;4347588;33;20333;-82
2022/05/20 10:02:59;;;;;;;;;;;;;;;31.49;60.88;100310.69;4334364;33;19975;-81
2022/05/20 10:05:36;;;;;;;;;;;;;;;31.42;60.88;100311.34;4347471;33;19987;-81
2022/05/20 10:08:02;;;;;;;;;;;;;;;31.45;60.88;100305.59;4333753;33;19998;-81
2022/05/20 10:10:47;;;;;;;;;;;;;;;31.65;60.89;100305.25;4347426;33;19988;-82
2022/05/20 10:13:24;;;;;;;;;;;;;;;31.76;60.90;100296.84;4346917;33;19971;-81
2022/05/20 10:15:50;;;;;;;;;;;;;;;31.65;60.90;100302.56;4347281;33;19975;-82
2022/05/20 10:18:26;;;;;;;;;;;;;;;31.63;60.90;100294.66;4347395;33;19980;-82
2022/05/20 10:20:55;;;;;;;;;;;;;;;31.78;60.90;100288.59;4333821;33;20046;-81
2022/05/20 10:23:37;;;;;;;;;;;;;;;31.93;60.90;100276.91;4333743;33;20331;-82
2022/05/20 10:26:21;;;;;;;;;;;;;;;32.12;60.92;100274.84;4321415;33;20010;-82
2022/05/20 10:34:32;;;;;;;;;;;;;;;32.16;60.92;100270.75;4336031;33;19993;-82
2022/05/20 10:37:21;;;;;;;;;;;;;;;32.22;60.92;100275.47;4333757;33;19984;-82
2022/05/20 10:40:01;;;;;;;;;;;;;;;32.04;60.92;100275.72;4339260;33;20039;-82
2022/05/20 10:43:02;;;;;;;;;;;;;;;32.15;60.92;100287.94;4347196;33;20059;-82
2022/05/20 10:48:36;;;;;;;;;;;;;;;32.21;60.93;100274.63;4343078;33;19994;-82
2022/05/20 10:51:09;;;;;;;;;;;;;;;32.37;60.93;100262.94;4346927;33;20091;-82
2022/05/20 10:53:43;;;;;;;;;;;;;;;32.39;60.93;100258.22;4333877;33;20363;-82
2022/05/20 10:56:18;;;;;;;;;;;;;;;32.39;60.93;100258.22;4349041;33;19983;-83
2022/05/20 10:58:52;;;;;;;;;;;;;;;32.57;60.94;100257.94;4349020;33;19994;-83
2022/05/20 11:01:20;;;;;;;;;;;;;;;32.83;60.95;100241.44;4335515;33;20047;-83
2022/05/20 11:03:48;;;;;;;;;;;;;;;32.94;60.96;100244.56;4349081;33;19995;-82
2022/05/20 11:06:22;;;;;;;;;;;;;;;33.03;60.96;100248.00;4348967;33;20071;-82
2022/05/20 11:09:00;;;;;;;;;;;;;;;32.72;60.95;100241.84;4349079;33;19979;-83
2022/05/20 11:11:31;;;;;;;;;;;;;;;32.23;60.92;100253.75;4309089;33;889866;-83
2022/05/20 11:13:58;;;;;;;;;;;;;;;32.48;60.93;100238.28;4348847;33;20002;-83
2022/05/20 11:16:38;;;;;;;;;;;;;;;32.72;60.95;100231.06;4349010;33;20051;-83
2022/05/20 11:19:22;;;;;;;;;;;;;;;32.56;60.94;100234.69;4349070;33;19979;-83
2022/05/20 11:21:53;;;;;;;;;;;;;;;32.11;60.92;100235.44;4348928;33;19979;-83
2022/05/20 11:24:24;;;;;;;;;;;;;;;32.18;60.93;100221.13;4349006;33;19988;-83
2022/05/20 11:27:05;;;;;;;;;;;;;;;32.15;60.92;100216.06;4348920;33;19971;-83
2022/05/20 11:29:36;;;;;;;;;;;;;;;32.23;60.92;100231.34;4348981;33;19976;-83
2022/05/20 11:32:03;;;;;;;;;;;;;;;32.60;60.94;100231.47;4348978;33;19984;-83
2022/05/20 11:34:38;;;;;;;;;;;;;;;32.56;60.94;100230.16;4335556;33;20509;-83
2022/05/20 11:37:15;;;;;;;;;;;;;;;32.65;60.94;100226.38;4335835;33;19984;-83
2022/05/20 11:39:52;;;;;;;;;;;;;;;32.79;60.95;100214.00;4349178;33;20021;-84
2022/05/20 11:42:20;;;;;;;;;;;;;;;33.03;60.96;100215.62;4348800;33;20281;-83
2022/05/20 11:44:51;;;;;;;;;;;;;;;33.14;60.96;100203.56;4348902;33;19995;-84
2022/05/20 11:47:35;;;;;;;;;;;;;;;33.19;60.97;100203.84;4348721;33;19994;-83
2022/05/20 11:50:22;;;;;;;;;;;;;;;33.07;60.96;100199.91;4348577;33;20363;-83
2022/05/20 11:53:02;;;;;;;;;;;;;;;32.78;60.95;100196.09;4335097;33;20006;-83
2022/05/20 11:55:27;;;;;;;;;;;;;;;32.81;60.95;100193.06;4334979;33;20004;-83
2022/05/20 11:57:54;;;;;;;;;;;;;;;32.93;60.96;100188.09;4348582;33;20031;-84
2022/05/20 12:00:21;;;;;;;;;;;;;;;33.11;60.97;100195.81;4335139;33;20341;-83
2022/05/20 12:02:51;;;;;;;;;;;;;;;33.00;60.96;100193.59;4348810;33;19995;-83
2022/05/20 12:05:17;;;;;;;;;;;;;;;32.92;60.96;100187.25;4347927;33;20036;-83
2022/05/20 12:07:42;;;;;;;;;;;;;;;32.93;60.96;100180.00;4335000;33;19990;-83
2022/05/20 12:10:18;;;;;;;;;;;;;;;32.80;60.95;100179.78;4334972;33;19995;-84
2022/05/20 12:12:51;;;;;;;;;;;;;;;32.66;60.96;100176.00;4348793;33;20337;-83
2022/05/20 12:15:19;;;;;;;;;;;;;;;32.78;60.96;100166.44;4348585;33;19995;-83
2022/05/20 12:17:48;;;;;;;;;;;;;;;32.65;60.94;100164.38;4348439;33;20336;-83
2022/05/20 12:25:50;;;;;;;;;;;;;;;32.41;60.93;100161.88;4348422;33;20374;-83
2022/05/20 12:28:22;;;;;;;;;;;;;;;32.48;60.93;100156.63;4348416;33;20583;-83
2022/05/20 12:30:56;;;;;;;;;;;;;;;32.73;60.94;100152.69;4348459;33;20034;-84
2022/05/20 12:33:22;;;;;;;;;;;;;;;32.79;60.95;100151.97;4334763;33;20037;-83
2022/05/20 12:36:07;;;;;;;;;;;;;;;32.33;60.94;100160.09;4334861;33;20388;-83
2022/05/20 12:38:32;;;;;;;;;;;;;;;32.48;60.93;100153.91;4348675;33;19975;-83
2022/05/20 12:40:57;;;;;;;;;;;;;;;32.82;60.96;100158.87;4334568;33;19972;-83
2022/05/20 12:43:42;;;;;;;;;;;;;;;32.87;60.95;100148.34;4334731;33;19995;-84
2022/05/20 12:46:07;;;;;;;;;;;;;;;32.99;60.96;100146.06;4348178;33;20002;-83
2022/05/20 12:48:32;;;;;;;;;;;;;;;32.80;60.95;100145.56;4334722;33;19991;-83
2022/05/20 12:50:59;;;;;;;;;;;;;;;32.82;60.96;100143.53;4334551;33;20346;-83
2022/05/20 12:53:25;;;;;;;;;;;;;;;32.54;60.93;100142.41;4348269;33;20351;-84
2022/05/20 12:55:52;;;;;;;;;;;;;;;32.57;60.94;100142.03;4334685;33;20037;-83
2022/05/20 12:58:18;;;;;;;;;;;;;;;32.56;60.94;100138.50;4334798;33;20867;-83
2022/05/20 13:00:47;;;;;;;;;;;;;;;32.77;60.95;100129.72;4334620;33;19976;-83
2022/05/20 13:03:16;;;;;;;;;;;;;;;32.82;60.96;100131.91;4348154;33;20262;-83
2022/05/20 13:05:52;;;;;;;;;;;;;;;32.86;60.95;100127.81;4334511;33;20420;-83
2022/05/20 13:08:18;;;;;;;;;;;;;;;33.00;60.96;100124.31;4348144;33;19975;-83
2022/05/20 13:10:44;;;;;;;;;;;;;;;32.81;60.95;100122.13;4334806;33;19971;-82
2022/05/20 13:13:09;;;;;;;;;;;;;;;32.74;60.94;100118.47;4334758;33;20035;-84
2022/05/20 13:15:44;;;;;;;;;;;;;;;32.94;60.96;100114.25;4348349;33;20257;-83
2022/05/20 13:18:20;;;;;;;;;;;;;;;33.04;60.96;100116.69;4347014;33;19989;-83
2022/05/20 13:20:45;;;;;;;;;;;;;;;33.07;60.97;100111.75;4334620;33;20338;-83
2022/05/20 13:23:14;;;;;;;;;;;;;;;33.20;60.97;100108.41;4347933;33;20031;-83